sensor_id;sensor_type;location;lat;lon;timestamp;temperature;humidity
19734;DHT22;10018;51.230;7.860;2022-12-10T00:01:14;-1.10;99.90
19734;DHT22;10018;51.230;7.860;2022-12-10T00:03:40;-1.10;99.90
19734;DHT22;10018;51.230;7.860;2022-12-10T00:06:07;-1.20;99.90
19734;DHT22;10018;51.230;7.860;2022-12-10T00:08:34;-1.20;99.90
19734;DHT22;10018;51.230;7.860;2022-12-10T00:11:03;-1.20;99.90
19734;DHT22;10018;51.230;7.860;2022-12-10T00:13:29;-1.10;99.90
19734;DHT22;10018;51.230;7.860;2022-12-10T00:15:54;-1.00;99.90
19734;DHT22;10018;51.230;7.860;2022-12-10T00:18:20;-1.10;99.90
19734;DHT22;10018;51.230;7.860;2022-12-10T00:20:45;-1.10;99.90
19734;DHT22;10018;51.230;7.860;2022-12-10T00:23:11;-1.10;99.90
19734;DHT22;10018;51.230;7.860;2022-12-10T00:25:36;-1.20;99.90
19734;DHT22;10018;51.230;7.860;2022-12-10T00:28:02;-1.20;99.90
19734;DHT22;10018;51.230;7.860;2022-12-10T00:30:27;-1.20;99.90
19734;DHT22;10018;51.230;7.860;2022-12-10T00:32:53;-1.10;99.90
19734;DHT22;10018;51.230;7.860;2022-12-10T00:35:18;-1.20;99.90
19734;DHT22;10018;51.230;7.860;2022-12-10T00:37:44;-1.20;99.90
19734;DHT22;10018;51.230;7.860;2022-12-10T00:40:10;-1.20;99.90
19734;DHT22;10018;51.230;7.860;2022-12-10T00:42:38;-1.20;99.90
19734;DHT22;10018;51.230;7.860;2022-12-10T00:45:04;-1.20;99.90
19734;DHT22;10018;51.230;7.860;2022-12-10T00:47:30;-1.30;99.90
19734;DHT22;10018;51.230;7.860;2022-12-10T00:49:56;-1.30;99.90
19734;DHT22;10018;51.230;7.860;2022-12-10T00:52:21;-1.20;99.90
19734;DHT22;10018;51.230;7.860;2022-12-10T00:54:47;-1.20;99.90
19734;DHT22;10018;51.230;7.860;2022-12-10T00:57:12;-1.30;99.90
19734;DHT22;10018;51.230;7.860;2022-12-10T00:59:38;-1.20;99.90
19734;DHT22;10018;51.230;7.860;2022-12-10T01:02:03;-1.30;99.90
19734;DHT22;10018;51.230;7.860;2022-12-10T01:04:29;-1.20;99.90
19734;DHT22;10018;51.230;7.860;2022-12-10T01:06:54;-1.20;99.90
19734;DHT22;10018;51.230;7.860;2022-12-10T01:09:23;-1.30;99.90
19734;DHT22;10018;51.230;7.860;2022-12-10T01:11:50;-1.30;99.90
19734;DHT22;10018;51.230;7.860;2022-12-10T01:14:23;-1.30;99.90
19734;DHT22;10018;51.230;7.860;2022-12-10T01:16:50;-1.20;99.90
19734;DHT22;10018;51.230;7.860;2022-12-10T01:19:18;-1.30;99.90
19734;DHT22;10018;51.230;7.860;2022-12-10T01:21:44;-1.30;99.90
19734;DHT22;10018;51.230;7.860;2022-12-10T01:24:09;-1.30;99.90
19734;DHT22;10018;51.230;7.860;2022-12-10T01:26:36;-1.30;99.90
19734;DHT22;10018;51.230;7.860;2022-12-10T01:29:03;-1.30;99.90
19734;DHT22;10018;51.230;7.860;2022-12-10T01:31:32;-1.30;99.90
19734;DHT22;10018;51.230;7.860;2022-12-10T01:33:58;-1.30;99.90
19734;DHT22;10018;51.230;7.860;2022-12-10T01:36:32;-1.30;99.90
19734;DHT22;10018;51.230;7.860;2022-12-10T01:38:59;-1.20;99.90
19734;DHT22;10018;51.230;7.860;2022-12-10T01:41:29;-1.20;99.90
19734;DHT22;10018;51.230;7.860;2022-12-10T01:44:04;-1.20;99.90
19734;DHT22;10018;51.230;7.860;2022-12-10T01:46:38;-1.20;99.90
19734;DHT22;10018;51.230;7.860;2022-12-10T01:49:07;-1.20;99.90
19734;DHT22;10018;51.230;7.860;2022-12-10T01:51:34;-1.20;99.90
19734;DHT22;10018;51.230;7.860;2022-12-10T01:54:03;-1.20;99.90
19734;DHT22;10018;51.230;7.860;2022-12-10T01:56:29;-1.20;99.90
19734;DHT22;10018;51.230;7.860;2022-12-10T01:58:57;-1.20;99.90
19734;DHT22;10018;51.230;7.860;2022-12-10T02:07:55;-1.20;99.90
19734;DHT22;10018;51.230;7.860;2022-12-10T02:16:04;-1.10;99.90
19734;DHT22;10018;51.230;7.860;2022-12-10T02:18:48;-1.10;99.90
19734;DHT22;10018;51.230;7.860;2022-12-10T02:21:29;-1.10;99.90
19734;DHT22;10018;51.230;7.860;2022-12-10T02:23:59;-1.10;99.90
19734;DHT22;10018;51.230;7.860;2022-12-10T02:26:45;-1.20;99.90
19734;DHT22;10018;51.230;7.860;2022-12-10T02:29:23;-1.20;99.90
19734;DHT22;10018;51.230;7.860;2022-12-10T02:31:56;-1.20;99.90
19734;DHT22;10018;51.230;7.860;2022-12-10T02:34:26;-1.20;99.90
19734;DHT22;10018;51.230;7.860;2022-12-10T02:36:54;-1.10;99.90
19734;DHT22;10018;51.230;7.860;2022-12-10T02:39:27;-1.10;99.90
19734;DHT22;10018;51.230;7.860;2022-12-10T02:41:55;-1.10;99.90
19734;DHT22;10018;51.230;7.860;2022-12-10T02:44:24;-1.10;99.90
19734;DHT22;10018;51.230;7.860;2022-12-10T02:46:52;-1.10;99.90
19734;DHT22;10018;51.230;7.860;2022-12-10T02:49:20;-1.10;99.90
19734;DHT22;10018;51.230;7.860;2022-12-10T02:51:46;-1.00;99.90
19734;DHT22;10018;51.230;7.860;2022-12-10T02:54:38;-1.10;99.90
19734;DHT22;10018;51.230;7.860;2022-12-10T03:02:39;-1.10;99.90
19734;DHT22;10018;51.230;7.860;2022-12-10T03:05:09;-1.10;99.90
19734;DHT22;10018;51.230;7.860;2022-12-10T03:07:41;-1.10;99.90
19734;DHT22;10018;51.230;7.860;2022-12-10T03:10:35;-1.10;99.90
19734;DHT22;10018;51.230;7.860;2022-12-10T03:13:07;-1.00;99.90
19734;DHT22;10018;51.230;7.860;2022-12-10T03:15:38;-1.10;99.90
19734;DHT22;10018;51.230;7.860;2022-12-10T03:18:06;-1.00;99.90
19734;DHT22;10018;51.230;7.860;2022-12-10T03:20:36;-1.00;99.90
19734;DHT22;10018;51.230;7.860;2022-12-10T03:23:03;-1.10;99.90
19734;DHT22;10018;51.230;7.860;2022-12-10T03:25:32;-1.10;99.90
19734;DHT22;10018;51.230;7.860;2022-12-10T03:27:59;-1.10;99.90
19734;DHT22;10018;51.230;7.860;2022-12-10T03:30:26;-1.10;99.90
19734;DHT22;10018;51.230;7.860;2022-12-10T03:32:53;-1.10;99.90
19734;DHT22;10018;51.230;7.860;2022-12-10T03:35:20;-1.10;99.90
19734;DHT22;10018;51.230;7.860;2022-12-10T03:37:48;-1.10;99.90
19734;DHT22;10018;51.230;7.860;2022-12-10T03:40:16;-1.00;99.90
19734;DHT22;10018;51.230;7.860;2022-12-10T03:42:43;-1.00;99.90
19734;DHT22;10018;51.230;7.860;2022-12-10T03:45:09;-1.00;99.90
19734;DHT22;10018;51.230;7.860;2022-12-10T03:47:35;-1.00;99.90
19734;DHT22;10018;51.230;7.860;2022-12-10T03:50:00;-1.00;99.90
19734;DHT22;10018;51.230;7.860;2022-12-10T03:52:26;-1.00;99.90
19734;DHT22;10018;51.230;7.860;2022-12-10T03:54:51;-1.00;99.90
19734;DHT22;10018;51.230;7.860;2022-12-10T03:57:17;-0.90;99.90
19734;DHT22;10018;51.230;7.860;2022-12-10T03:59:42;-0.90;99.90
19734;DHT22;10018;51.230;7.860;2022-12-10T04:02:08;-0.90;99.90
19734;DHT22;10018;51.230;7.860;2022-12-10T04:04:33;-0.80;99.90
19734;DHT22;10018;51.230;7.860;2022-12-10T04:06:59;-0.90;99.90
19734;DHT22;10018;51.230;7.860;2022-12-10T04:09:24;-1.00;99.90
19734;DHT22;10018;51.230;7.860;2022-12-10T04:11:50;-1.00;99.90
19734;DHT22;10018;51.230;7.860;2022-12-10T04:14:19;-1.00;99.90
19734;DHT22;10018;51.230;7.860;2022-12-10T04:17:03;-0.90;99.90
19734;DHT22;10018;51.230;7.860;2022-12-10T04:19:29;-1.00;99.90
19734;DHT22;10018;51.230;7.860;2022-12-10T04:21:54;-1.00;99.90
19734;DHT22;10018;51.230;7.860;2022-12-10T04:24:38;-1.00;99.90
19734;DHT22;10018;51.230;7.860;2022-12-10T04:27:25;-0.90;99.90
19734;DHT22;10018;51.230;7.860;2022-12-10T04:29:52;-0.90;99.90
19734;DHT22;10018;51.230;7.860;2022-12-10T04:32:18;-0.80;99.90
19734;DHT22;10018;51.230;7.860;2022-12-10T04:34:44;-0.80;99.90
19734;DHT22;10018;51.230;7.860;2022-12-10T04:37:11;-0.80;99.90
19734;DHT22;10018;51.230;7.860;2022-12-10T04:39:37;-0.80;99.90
19734;DHT22;10018;51.230;7.860;2022-12-10T04:42:03;-0.80;99.90
19734;DHT22;10018;51.230;7.860;2022-12-10T04:44:29;-0.80;99.90
19734;DHT22;10018;51.230;7.860;2022-12-10T04:46:54;-0.70;99.90
19734;DHT22;10018;51.230;7.860;2022-12-10T04:49:20;-0.70;99.90
19734;DHT22;10018;51.230;7.860;2022-12-10T04:51:45;-0.80;99.90
19734;DHT22;10018;51.230;7.860;2022-12-10T04:54:12;-0.80;99.90
19734;DHT22;10018;51.230;7.860;2022-12-10T04:56:37;-0.80;99.90
19734;DHT22;10018;51.230;7.860;2022-12-10T04:59:04;-0.80;99.90
19734;DHT22;10018;51.230;7.860;2022-12-10T05:01:29;-0.80;99.90
19734;DHT22;10018;51.230;7.860;2022-12-10T05:03:58;-0.80;99.90
19734;DHT22;10018;51.230;7.860;2022-12-10T05:06:24;-0.80;99.90
19734;DHT22;10018;51.230;7.860;2022-12-10T05:08:49;-0.80;99.90
19734;DHT22;10018;51.230;7.860;2022-12-10T05:11:17;-0.80;99.90
19734;DHT22;10018;51.230;7.860;2022-12-10T05:13:43;-0.90;99.90
19734;DHT22;10018;51.230;7.860;2022-12-10T05:16:12;-0.90;99.90
19734;DHT22;10018;51.230;7.860;2022-12-10T05:18:38;-0.90;99.90
19734;DHT22;10018;51.230;7.860;2022-12-10T05:21:11;-0.90;99.90
19734;DHT22;10018;51.230;7.860;2022-12-10T05:23:38;-0.80;99.90
19734;DHT22;10018;51.230;7.860;2022-12-10T05:26:07;-0.80;99.90
19734;DHT22;10018;51.230;7.860;2022-12-10T05:28:36;-0.80;99.90
19734;DHT22;10018;51.230;7.860;2022-12-10T05:31:02;-0.80;99.90
19734;DHT22;10018;51.230;7.860;2022-12-10T05:33:28;-0.80;99.90
19734;DHT22;10018;51.230;7.860;2022-12-10T05:36:03;-0.80;99.90
19734;DHT22;10018;51.230;7.860;2022-12-10T05:38:31;-0.70;99.90
19734;DHT22;10018;51.230;7.860;2022-12-10T05:41:05;-0.70;99.90
19734;DHT22;10018;51.230;7.860;2022-12-10T05:43:31;-0.70;99.90
19734;DHT22;10018;51.230;7.860;2022-12-10T05:46:06;-0.70;99.90
19734;DHT22;10018;51.230;7.860;2022-12-10T05:48:33;-0.70;99.90
19734;DHT22;10018;51.230;7.860;2022-12-10T05:51:04;-0.80;99.90
19734;DHT22;10018;51.230;7.860;2022-12-10T05:53:29;-0.70;99.90
19734;DHT22;10018;51.230;7.860;2022-12-10T05:56:02;-0.80;99.90
19734;DHT22;10018;51.230;7.860;2022-12-10T05:58:29;-0.80;99.90
19734;DHT22;10018;51.230;7.860;2022-12-10T06:00:55;-0.70;99.90
19734;DHT22;10018;51.230;7.860;2022-12-10T06:03:21;-0.80;99.90
19734;DHT22;10018;51.230;7.860;2022-12-10T06:05:46;-0.70;99.90
19734;DHT22;10018;51.230;7.860;2022-12-10T06:08:12;-0.70;99.90
19734;DHT22;10018;51.230;7.860;2022-12-10T06:10:37;-0.70;99.90
19734;DHT22;10018;51.230;7.860;2022-12-10T06:13:03;-0.70;99.90
19734;DHT22;10018;51.230;7.860;2022-12-10T06:15:30;-0.70;99.90
19734;DHT22;10018;51.230;7.860;2022-12-10T06:17:56;-0.70;99.90
19734;DHT22;10018;51.230;7.860;2022-12-10T06:20:23;-0.70;99.90
19734;DHT22;10018;51.230;7.860;2022-12-10T06:22:48;-0.70;99.90
19734;DHT22;10018;51.230;7.860;2022-12-10T06:25:14;-0.70;99.90
19734;DHT22;10018;51.230;7.860;2022-12-10T06:27:40;-0.70;99.90
19734;DHT22;10018;51.230;7.860;2022-12-10T06:30:05;-0.70;99.90
19734;DHT22;10018;51.230;7.860;2022-12-10T06:32:31;-0.60;99.90
19734;DHT22;10018;51.230;7.860;2022-12-10T06:34:57;-0.70;99.90
19734;DHT22;10018;51.230;7.860;2022-12-10T06:37:22;-0.70;99.90
19734;DHT22;10018;51.230;7.860;2022-12-10T06:39:50;-0.70;99.90
19734;DHT22;10018;51.230;7.860;2022-12-10T06:42:16;-0.70;99.90
19734;DHT22;10018;51.230;7.860;2022-12-10T06:44:42;-0.70;99.90
19734;DHT22;10018;51.230;7.860;2022-12-10T06:47:07;-0.80;99.90
19734;DHT22;10018;51.230;7.860;2022-12-10T06:49:33;-0.80;99.90
19734;DHT22;10018;51.230;7.860;2022-12-10T06:51:58;-0.80;99.90
19734;DHT22;10018;51.230;7.860;2022-12-10T06:54:24;-0.80;99.90
19734;DHT22;10018;51.230;7.860;2022-12-10T06:56:49;-0.80;99.90
19734;DHT22;10018;51.230;7.860;2022-12-10T06:59:15;-0.80;99.90
19734;DHT22;10018;51.230;7.860;2022-12-10T07:01:40;-0.80;99.90
19734;DHT22;10018;51.230;7.860;2022-12-10T07:04:06;-0.80;99.90
19734;DHT22;10018;51.230;7.860;2022-12-10T07:06:32;-0.90;99.90
19734;DHT22;10018;51.230;7.860;2022-12-10T07:08:57;-0.90;99.90
19734;DHT22;10018;51.230;7.860;2022-12-10T07:11:24;-0.90;99.90
19734;DHT22;10018;51.230;7.860;2022-12-10T07:13:51;-0.90;99.90
19734;DHT22;10018;51.230;7.860;2022-12-10T07:16:20;-0.90;99.90
19734;DHT22;10018;51.230;7.860;2022-12-10T07:18:47;-0.90;99.90
19734;DHT22;10018;51.230;7.860;2022-12-10T07:21:17;-0.90;99.90
19734;DHT22;10018;51.230;7.860;2022-12-10T07:23:43;-0.90;99.90
19734;DHT22;10018;51.230;7.860;2022-12-10T07:26:09;-0.90;99.90
19734;DHT22;10018;51.230;7.860;2022-12-10T07:28:34;-1.00;99.90
19734;DHT22;10018;51.230;7.860;2022-12-10T07:31:04;-1.00;99.90
19734;DHT22;10018;51.230;7.860;2022-12-10T07:33:30;-0.90;99.90
19734;DHT22;10018;51.230;7.860;2022-12-10T07:35:56;-0.90;99.90
19734;DHT22;10018;51.230;7.860;2022-12-10T07:38:23;-0.90;99.90
19734;DHT22;10018;51.230;7.860;2022-12-10T07:40:49;-0.90;99.90
19734;DHT22;10018;51.230;7.860;2022-12-10T07:43:14;-0.90;99.90
19734;DHT22;10018;51.230;7.860;2022-12-10T07:45:40;-1.00;99.90
19734;DHT22;10018;51.230;7.860;2022-12-10T07:48:05;-1.00;99.90
19734;DHT22;10018;51.230;7.860;2022-12-10T07:50:31;-0.90;99.90
19734;DHT22;10018;51.230;7.860;2022-12-10T07:52:56;-1.00;99.90
19734;DHT22;10018;51.230;7.860;2022-12-10T07:55:22;-1.00;99.90
19734;DHT22;10018;51.230;7.860;2022-12-10T07:57:47;-1.00;99.90
19734;DHT22;10018;51.230;7.860;2022-12-10T08:00:13;-1.10;99.90
19734;DHT22;10018;51.230;7.860;2022-12-10T08:02:39;-1.10;99.90
19734;DHT22;10018;51.230;7.860;2022-12-10T08:05:04;-1.20;99.90
19734;DHT22;10018;51.230;7.860;2022-12-10T08:07:30;-1.20;99.90
19734;DHT22;10018;51.230;7.860;2022-12-10T08:09:55;-1.00;99.90
19734;DHT22;10018;51.230;7.860;2022-12-10T08:12:21;-1.10;99.90
19734;DHT22;10018;51.230;7.860;2022-12-10T08:14:46;-1.10;99.90
19734;DHT22;10018;51.230;7.860;2022-12-10T08:17:12;-1.10;99.90
19734;DHT22;10018;51.230;7.860;2022-12-10T08:19:37;-1.10;99.90
19734;DHT22;10018;51.230;7.860;2022-12-10T08:22:03;-1.10;99.90
19734;DHT22;10018;51.230;7.860;2022-12-10T08:24:28;-1.10;99.90
19734;DHT22;10018;51.230;7.860;2022-12-10T08:26:54;-1.20;99.90
19734;DHT22;10018;51.230;7.860;2022-12-10T08:29:19;-1.20;99.90
19734;DHT22;10018;51.230;7.860;2022-12-10T08:31:46;-1.30;99.90
19734;DHT22;10018;51.230;7.860;2022-12-10T08:34:16;-1.30;99.90
19734;DHT22;10018;51.230;7.860;2022-12-10T08:36:42;-1.30;99.90
19734;DHT22;10018;51.230;7.860;2022-12-10T08:39:08;-1.30;99.90
19734;DHT22;10018;51.230;7.860;2022-12-10T08:41:36;-1.40;99.90
19734;DHT22;10018;51.230;7.860;2022-12-10T08:44:02;-1.40;99.90
19734;DHT22;10018;51.230;7.860;2022-12-10T08:46:27;-1.40;99.90
19734;DHT22;10018;51.230;7.860;2022-12-10T08:48:54;-1.30;99.90
19734;DHT22;10018;51.230;7.860;2022-12-10T08:51:19;-1.40;99.90
19734;DHT22;10018;51.230;7.860;2022-12-10T08:53:45;-1.40;99.90
19734;DHT22;10018;51.230;7.860;2022-12-10T08:56:12;-1.30;99.90
19734;DHT22;10018;51.230;7.860;2022-12-10T08:58:38;-1.30;99.90
19734;DHT22;10018;51.230;7.860;2022-12-10T09:01:09;-1.20;99.90
19734;DHT22;10018;51.230;7.860;2022-12-10T09:03:36;-1.20;99.90
19734;DHT22;10018;51.230;7.860;2022-12-10T09:06:04;-1.20;99.90
19734;DHT22;10018;51.230;7.860;2022-12-10T09:08:29;-1.20;99.90
19734;DHT22;10018;51.230;7.860;2022-12-10T09:10:55;-1.20;99.90
19734;DHT22;10018;51.230;7.860;2022-12-10T09:13:20;-1.20;99.90
19734;DHT22;10018;51.230;7.860;2022-12-10T09:15:51;-1.20;99.90
19734;DHT22;10018;51.230;7.860;2022-12-10T09:18:16;-1.20;99.90
19734;DHT22;10018;51.230;7.860;2022-12-10T09:20:42;-1.10;99.90
19734;DHT22;10018;51.230;7.860;2022-12-10T09:23:08;-1.10;99.90
19734;DHT22;10018;51.230;7.860;2022-12-10T09:25:33;-1.10;99.90
19734;DHT22;10018;51.230;7.860;2022-12-10T09:27:59;-1.00;99.90
19734;DHT22;10018;51.230;7.860;2022-12-10T09:30:24;-1.10;99.90
19734;DHT22;10018;51.230;7.860;2022-12-10T09:32:50;-1.00;99.90
19734;DHT22;10018;51.230;7.860;2022-12-10T09:35:15;-1.00;99.90
19734;DHT22;10018;51.230;7.860;2022-12-10T09:37:41;-1.00;99.90
19734;DHT22;10018;51.230;7.860;2022-12-10T09:40:06;-1.00;99.90
19734;DHT22;10018;51.230;7.860;2022-12-10T09:42:58;-1.00;99.90
19734;DHT22;10018;51.230;7.860;2022-12-10T09:45:39;-1.00;99.90
19734;DHT22;10018;51.230;7.860;2022-12-10T09:48:25;-0.90;99.90
19734;DHT22;10018;51.230;7.860;2022-12-10T09:53:38;-0.90;99.90
19734;DHT22;10018;51.230;7.860;2022-12-10T09:56:05;-0.80;99.90
19734;DHT22;10018;51.230;7.860;2022-12-10T09:58:34;-0.80;99.90
19734;DHT22;10018;51.230;7.860;2022-12-10T10:01:04;-0.90;99.90
19734;DHT22;10018;51.230;7.860;2022-12-10T10:03:35;-0.90;99.90
19734;DHT22;10018;51.230;7.860;2022-12-10T10:06:03;-0.80;99.90
19734;DHT22;10018;51.230;7.860;2022-12-10T10:08:33;-0.80;99.90
19734;DHT22;10018;51.230;7.860;2022-12-10T10:11:00;-0.80;99.90
19734;DHT22;10018;51.230;7.860;2022-12-10T10:14:12;-0.80;99.90
19734;DHT22;10018;51.230;7.860;2022-12-10T10:16:48;-0.80;99.90
19734;DHT22;10018;51.230;7.860;2022-12-10T10:19:18;-0.80;99.90
19734;DHT22;10018;51.230;7.860;2022-12-10T10:21:49;-0.80;99.90
19734;DHT22;10018;51.230;7.860;2022-12-10T10:24:33;-0.70;99.90
19734;DHT22;10018;51.230;7.860;2022-12-10T10:27:15;-0.60;99.90
19734;DHT22;10018;51.230;7.860;2022-12-10T10:29:43;-0.70;99.90
19734;DHT22;10018;51.230;7.860;2022-12-10T10:32:15;-0.70;99.90
19734;DHT22;10018;51.230;7.860;2022-12-10T10:34:42;-0.70;99.90
19734;DHT22;10018;51.230;7.860;2022-12-10T10:37:22;-0.70;99.90
19734;DHT22;10018;51.230;7.860;2022-12-10T10:39:50;-0.70;99.90
19734;DHT22;10018;51.230;7.860;2022-12-10T10:42:37;-0.70;99.90
19734;DHT22;10018;51.230;7.860;2022-12-10T10:48:13;-0.70;99.90
19734;DHT22;10018;51.230;7.860;2022-12-10T10:50:42;-0.80;99.90
19734;DHT22;10018;51.230;7.860;2022-12-10T10:53:25;-0.90;99.90
19734;DHT22;10018;51.230;7.860;2022-12-10T10:55:57;-0.80;99.90
19734;DHT22;10018;51.230;7.860;2022-12-10T10:58:24;-0.80;99.90
19734;DHT22;10018;51.230;7.860;2022-12-10T11:00:54;-0.70;99.90
19734;DHT22;10018;51.230;7.860;2022-12-10T11:03:20;-0.80;99.90
19734;DHT22;10018;51.230;7.860;2022-12-10T11:05:47;-0.80;99.90
19734;DHT22;10018;51.230;7.860;2022-12-10T11:08:16;-0.90;99.90
19734;DHT22;10018;51.230;7.860;2022-12-10T11:10:48;-0.90;99.90
19734;DHT22;10018;51.230;7.860;2022-12-10T11:13:22;-1.00;99.90
19734;DHT22;10018;51.230;7.860;2022-12-10T11:15:55;-1.00;99.90
19734;DHT22;10018;51.230;7.860;2022-12-10T11:21:01;-0.90;99.90
19734;DHT22;10018;51.230;7.860;2022-12-10T11:23:48;-0.80;99.90
19734;DHT22;10018;51.230;7.860;2022-12-10T11:32:20;-0.80;99.90
19734;DHT22;10018;51.230;7.860;2022-12-10T11:40:38;-0.90;99.90
19734;DHT22;10018;51.230;7.860;2022-12-10T11:46:30;-0.90;99.90
19734;DHT22;10018;51.230;7.860;2022-12-10T11:49:14;-0.90;99.90
19734;DHT22;10018;51.230;7.860;2022-12-10T11:52:05;-0.90;99.90
19734;DHT22;10018;51.230;7.860;2022-12-10T11:54:47;-0.80;99.90
19734;DHT22;10018;51.230;7.860;2022-12-10T12:00:03;-0.80;99.90
19734;DHT22;10018;51.230;7.860;2022-12-10T12:02:46;-0.70;99.90
19734;DHT22;10018;51.230;7.860;2022-12-10T12:05:41;-0.70;99.90
19734;DHT22;10018;51.230;7.860;2022-12-10T12:11:38;-0.60;99.90
19734;DHT22;10018;51.230;7.860;2022-12-10T12:13:50;-0.60;99.90
19734;DHT22;10018;51.230;7.860;2022-12-10T12:16:26;-0.60;99.90
19734;DHT22;10018;51.230;7.860;2022-12-10T12:19:02;-0.70;99.90
19734;DHT22;10018;51.230;7.860;2022-12-10T12:21:28;-0.60;99.90
19734;DHT22;10018;51.230;7.860;2022-12-10T12:24:01;-0.60;99.90
19734;DHT22;10018;51.230;7.860;2022-12-10T12:31:46;-0.60;99.90
19734;DHT22;10018;51.230;7.860;2022-12-10T12:34:37;-0.60;99.90
19734;DHT22;10018;51.230;7.860;2022-12-10T12:37:12;-0.50;99.90
19734;DHT22;10018;51.230;7.860;2022-12-10T12:39:48;-0.50;99.90
19734;DHT22;10018;51.230;7.860;2022-12-10T12:42:30;-0.50;99.90
19734;DHT22;10018;51.230;7.860;2022-12-10T12:45:13;-0.50;99.90
19734;DHT22;10018;51.230;7.860;2022-12-10T12:52:56;-0.40;99.90
19734;DHT22;10018;51.230;7.860;2022-12-10T13:00:32;-0.50;99.90
19734;DHT22;10018;51.230;7.860;2022-12-10T13:03:18;-0.50;99.90
19734;DHT22;10018;51.230;7.860;2022-12-10T13:05:45;-0.50;99.90
19734;DHT22;10018;51.230;7.860;2022-12-10T13:10:45;-0.40;99.90
19734;DHT22;10018;51.230;7.860;2022-12-10T13:24:25;-0.30;99.90
19734;DHT22;10018;51.230;7.860;2022-12-10T13:27:30;-0.30;99.90
19734;DHT22;10018;51.230;7.860;2022-12-10T13:30:27;-0.30;99.90
19734;DHT22;10018;51.230;7.860;2022-12-10T13:33:14;-0.20;99.90
19734;DHT22;10018;51.230;7.860;2022-12-10T13:35:55;-0.20;99.90
19734;DHT22;10018;51.230;7.860;2022-12-10T13:38:25;-0.30;99.90
19734;DHT22;10018;51.230;7.860;2022-12-10T13:41:04;-0.20;99.90
19734;DHT22;10018;51.230;7.860;2022-12-10T13:43:57;-0.20;99.90
19734;DHT22;10018;51.230;7.860;2022-12-10T13:46:58;-0.10;99.90
19734;DHT22;10018;51.230;7.860;2022-12-10T13:49:27;-0.10;99.90
19734;DHT22;10018;51.230;7.860;2022-12-10T13:57:17;0.00;99.90
19734;DHT22;10018;51.230;7.860;2022-12-10T14:00:08;0.00;99.90
19734;DHT22;10018;51.230;7.860;2022-12-10T14:08:16;-0.20;99.90
19734;DHT22;10018;51.230;7.860;2022-12-10T14:10:42;-0.20;99.90
19734;DHT22;10018;51.230;7.860;2022-12-10T14:13:11;-0.30;99.90
19734;DHT22;10018;51.230;7.860;2022-12-10T14:15:38;-0.30;99.90
19734;DHT22;10018;51.230;7.860;2022-12-10T14:18:11;-0.20;99.90
19734;DHT22;10018;51.230;7.860;2022-12-10T14:20:41;-0.20;99.90
19734;DHT22;10018;51.230;7.860;2022-12-10T14:25:58;-0.10;99.90
19734;DHT22;10018;51.230;7.860;2022-12-10T14:28:37;-0.10;99.90
19734;DHT22;10018;51.230;7.860;2022-12-10T14:31:07;-0.10;99.90
19734;DHT22;10018;51.230;7.860;2022-12-10T14:33:36;-0.20;99.90
19734;DHT22;10018;51.230;7.860;2022-12-10T14:36:02;-0.30;99.90
19734;DHT22;10018;51.230;7.860;2022-12-10T14:38:33;-0.20;99.90
19734;DHT22;10018;51.230;7.860;2022-12-10T14:40:59;-0.30;99.90
19734;DHT22;10018;51.230;7.860;2022-12-10T14:43:39;-0.30;99.90
19734;DHT22;10018;51.230;7.860;2022-12-10T14:46:16;-0.30;99.90
19734;DHT22;10018;51.230;7.860;2022-12-10T14:48:42;-0.30;99.90
19734;DHT22;10018;51.230;7.860;2022-12-10T14:51:20;-0.30;99.90
19734;DHT22;10018;51.230;7.860;2022-12-10T14:53:47;-0.30;99.90
19734;DHT22;10018;51.230;7.860;2022-12-10T14:56:28;-0.20;99.90
19734;DHT22;10018;51.230;7.860;2022-12-10T14:59:57;-0.20;99.90
19734;DHT22;10018;51.230;7.860;2022-12-10T15:01:54;-0.20;99.90
19734;DHT22;10018;51.230;7.860;2022-12-10T15:04:22;-0.10;99.90
19734;DHT22;10018;51.230;7.860;2022-12-10T15:06:50;-0.20;99.90
19734;DHT22;10018;51.230;7.860;2022-12-10T15:09:20;-0.10;99.90
19734;DHT22;10018;51.230;7.860;2022-12-10T15:11:58;-0.10;99.90
19734;DHT22;10018;51.230;7.860;2022-12-10T15:14:25;-0.20;99.90
19734;DHT22;10018;51.230;7.860;2022-12-10T15:16:51;-0.20;99.90
19734;DHT22;10018;51.230;7.860;2022-12-10T15:19:30;-0.30;99.90
19734;DHT22;10018;51.230;7.860;2022-12-10T15:22:18;-0.30;99.90
19734;DHT22;10018;51.230;7.860;2022-12-10T15:24:44;-0.40;99.90
19734;DHT22;10018;51.230;7.860;2022-12-10T15:27:21;-0.40;99.90
19734;DHT22;10018;51.230;7.860;2022-12-10T15:29:48;-0.40;99.90
19734;DHT22;10018;51.230;7.860;2022-12-10T15:32:25;-0.40;99.90
19734;DHT22;10018;51.230;7.860;2022-12-10T15:35:03;-0.40;99.90
19734;DHT22;10018;51.230;7.860;2022-12-10T15:37:35;-0.40;99.90
19734;DHT22;10018;51.230;7.860;2022-12-10T15:40:06;-0.30;99.90
19734;DHT22;10018;51.230;7.860;2022-12-10T15:42:43;-0.30;99.90
19734;DHT22;10018;51.230;7.860;2022-12-10T15:45:27;-0.30;99.90
19734;DHT22;10018;51.230;7.860;2022-12-10T15:48:07;-0.30;99.90
19734;DHT22;10018;51.230;7.860;2022-12-10T15:50:33;-0.30;99.90
19734;DHT22;10018;51.230;7.860;2022-12-10T15:52:58;-0.30;99.90
19734;DHT22;10018;51.230;7.860;2022-12-10T15:55:24;-0.30;99.90
19734;DHT22;10018;51.230;7.860;2022-12-10T15:57:49;-0.30;99.90
19734;DHT22;10018;51.230;7.860;2022-12-10T16:00:21;-0.30;99.90
19734;DHT22;10018;51.230;7.860;2022-12-10T16:02:57;-0.30;99.90
19734;DHT22;10018;51.230;7.860;2022-12-10T16:05:25;-0.20;99.90
19734;DHT22;10018;51.230;7.860;2022-12-10T16:07:53;-0.30;99.90
19734;DHT22;10018;51.230;7.860;2022-12-10T16:10:20;-0.20;99.90
19734;DHT22;10018;51.230;7.860;2022-12-10T16:12:49;-0.20;99.90
19734;DHT22;10018;51.230;7.860;2022-12-10T16:15:18;-0.20;99.90
19734;DHT22;10018;51.230;7.860;2022-12-10T16:17:44;-0.20;99.90
19734;DHT22;10018;51.230;7.860;2022-12-10T16:20:30;-0.20;99.90
19734;DHT22;10018;51.230;7.860;2022-12-10T16:22:57;-0.20;99.90
19734;DHT22;10018;51.230;7.860;2022-12-10T16:25:25;-0.20;99.90
19734;DHT22;10018;51.230;7.860;2022-12-10T16:27:51;-0.20;99.90
19734;DHT22;10018;51.230;7.860;2022-12-10T16:30:24;-0.20;99.90
19734;DHT22;10018;51.230;7.860;2022-12-10T16:32:51;-0.30;99.90
19734;DHT22;10018;51.230;7.860;2022-12-10T16:35:17;-0.30;99.90
19734;DHT22;10018;51.230;7.860;2022-12-10T16:37:45;-0.20;99.90
19734;DHT22;10018;51.230;7.860;2022-12-10T16:40:13;-0.30;99.90
19734;DHT22;10018;51.230;7.860;2022-12-10T16:42:39;-0.30;99.90
19734;DHT22;10018;51.230;7.860;2022-12-10T16:45:17;-0.30;99.90
19734;DHT22;10018;51.230;7.860;2022-12-10T16:47:43;-0.30;99.90
19734;DHT22;10018;51.230;7.860;2022-12-10T16:50:09;-0.30;99.90
19734;DHT22;10018;51.230;7.860;2022-12-10T16:52:35;-0.30;99.90
19734;DHT22;10018;51.230;7.860;2022-12-10T16:55:02;-0.20;99.90
19734;DHT22;10018;51.230;7.860;2022-12-10T16:57:28;-0.20;99.90
19734;DHT22;10018;51.230;7.860;2022-12-10T16:59:53;-0.20;99.90
19734;DHT22;10018;51.230;7.860;2022-12-10T17:02:19;-0.20;99.90
19734;DHT22;10018;51.230;7.860;2022-12-10T17:04:46;-0.30;99.90
19734;DHT22;10018;51.230;7.860;2022-12-10T17:07:12;-0.30;99.90
19734;DHT22;10018;51.230;7.860;2022-12-10T17:09:38;-0.30;99.90
19734;DHT22;10018;51.230;7.860;2022-12-10T17:12:05;-0.40;99.90
19734;DHT22;10018;51.230;7.860;2022-12-10T17:14:36;-0.40;99.90
19734;DHT22;10018;51.230;7.860;2022-12-10T17:17:03;-0.40;99.90